Time;durP1;ratioP1;P1;durP2;ratioP2;P2;SDS_P1;SDS_P2;PMS_P1;PMS_P2;Temp;Humidity;BMP_temperature;BMP_pressure;BME280_temperature;BME280_humidity;BME280_pressure;Samples;Min_cycle;Max_cycle;Signal;HPM_P1;HPM_P2
2023/11/10 00:00:11;;;;;;;2.13;1.07;;;;;;;-141.84;82.51;19464.28;4968540;28;20255;-63
2023/11/10 00:02:41;;;;;;;2.30;0.80;;;;;;;-141.84;78.72;19342.34;4964962;28;20232;-63
2023/11/10 00:05:10;;;;;;;4.20;1.50;;;;;;;-141.84;79.96;19391.13;4964872;28;20757;-62
2023/11/10 00:07:39;;;;;;;5.60;1.67;;;;;;;-141.84;81.01;19383.00;4964676;28;20604;-63
2023/11/10 00:10:09;;;;;;;1.70;1.30;;;;;;;-141.84;82.95;19476.47;4956009;28;20290;-63
2023/11/10 00:12:39;;;;;;;3.63;1.13;;;;;;;-141.84;84.19;19539.47;4968056;28;20698;-62
2023/11/10 00:15:09;;;;;;;2.67;1.30;;;;;;;-141.84;81.49;19468.34;4983061;28;20228;-62
2023/11/10 00:17:39;;;;;;;1.77;1.30;;;;;;;-141.84;80.66;19387.06;4964093;28;20227;-62
2023/11/10 00:20:09;;;;;;;2.40;0.90;;;;;;;-141.84;81.58;19427.72;4957095;28;20232;-62
2023/11/10 00:22:38;;;;;;;2.87;1.23;;;;;;;-141.84;83.67;19517.13;4965206;28;20212;-62
2023/11/10 00:25:08;;;;;;;3.43;1.50;;;;;;;-141.84;83.80;19506.97;4964526;28;20803;-62
2023/11/10 00:27:36;;;;;;;3.63;1.30;;;;;;;-141.84;81.84;19458.19;4963741;28;20326;-62
2023/11/10 00:30:07;;;;;;;2.27;1.30;;;;;;;-141.84;80.56;19454.13;4956801;28;20229;-61
2023/11/10 00:32:37;;;;;;;2.90;1.47;;;;;;;-141.84;80.30;19399.25;4964153;28;20608;-62
2023/11/10 00:35:06;;;;;;;3.73;1.30;;;;;;;-141.84;81.65;19450.06;4975369;28;20593;-62
2023/11/10 00:37:35;;;;;;;2.70;1.20;;;;;;;-141.84;80.66;19397.22;4983415;28;20257;-61
2023/11/10 00:40:04;;;;;;;1.63;1.10;;;;;;;-141.84;80.82;19466.31;4975925;28;20293;-62
2023/11/10 00:42:32;;;;;;;2.93;1.33;;;;;;;-141.84;80.32;19425.69;4983248;28;20285;-62
2023/11/10 00:45:01;;;;;;;2.03;1.10;;;;;;;-141.84;79.21;19419.59;4983375;28;20613;-62
2023/11/10 00:47:30;;;;;;;2.40;1.00;;;;;;;-141.84;79.09;19397.22;4984943;28;20794;-62
2023/11/10 00:49:59;;;;;;;1.80;1.10;;;;;;;-141.84;80.20;19407.38;4983870;28;20768;-62
2023/11/10 00:52:27;;;;;;;2.40;1.30;;;;;;;-141.84;82.39;19492.75;4987805;28;20211;-63
2023/11/10 00:54:56;;;;;;;2.23;1.60;;;;;;;-141.84;83.54;19602.47;4986941;28;20229;-62
2023/11/10 00:57:25;;;;;;;1.07;0.97;;;;;;;-141.84;82.79;19537.44;4986721;28;20277;-61
2023/11/10 00:59:53;;;;;;;1.23;1.03;;;;;;;-141.84;81.70;19498.84;4981024;28;20232;-62
2023/11/10 01:02:22;;;;;;;1.73;1.23;;;;;;;-141.84;80.46;19466.31;4960904;28;20236;-62
2023/11/10 01:04:52;;;;;;;2.63;1.60;;;;;;;-141.84;80.65;19464.28;4967864;28;20578;-62
2023/11/10 01:07:20;;;;;;;3.30;1.20;;;;;;;-141.84;79.65;19427.72;4968034;28;20310;-62
2023/11/10 01:09:48;;;;;;;2.93;1.40;;;;;;;-141.84;79.77;19423.66;4967269;28;20239;-61
2023/11/10 01:12:17;;;;;;;3.47;1.40;;;;;;;-141.84;79.14;19415.50;4962795;28;21150;-62
2023/11/10 01:14:46;;;;;;;3.27;1.50;;;;;;;-141.84;78.59;19401.28;4986320;28;20242;-61
2023/11/10 01:17:14;;;;;;;2.13;1.40;;;;;;;-141.84;78.65;19407.38;4986847;28;20281;-62
2023/11/10 01:19:43;;;;;;;3.37;1.60;;;;;;;-141.84;78.85;19433.81;4986863;28;20207;-62
2023/11/10 01:22:13;;;;;;;2.50;1.50;;;;;;;-141.84;78.59;19441.94;4980301;28;20262;-62
2023/11/10 01:24:41;;;;;;;3.67;1.60;;;;;;;-141.84;78.73;19427.72;4986879;28;20409;-62
2023/11/10 01:27:10;;;;;;;1.97;1.40;;;;;;;-141.84;79.72;19474.44;4970340;28;20765;-61
2023/11/10 01:29:38;;;;;;;3.23;1.57;;;;;;;-141.84;80.29;19439.91;4966919;28;20527;-63
2023/11/10 01:32:07;;;;;;;3.57;2.30;;;;;;;-141.84;82.32;19488.69;4960294;28;20228;-63
2023/11/10 01:34:36;;;;;;;2.20;1.40;;;;;;;-141.84;83.74;19545.56;4974945;28;20219;-62
2023/11/10 01:37:06;;;;;;;2.10;1.33;;;;;;;-141.84;84.51;19649.22;4986480;28;20223;-62
2023/11/10 01:39:36;;;;;;;1.70;1.53;;;;;;;-141.84;83.98;19602.47;4986665;28;20659;-61
2023/11/10 01:42:08;;;;;;;1.40;1.20;;;;;;;-141.84;83.01;19539.47;4978473;28;20235;-61
2023/11/10 01:44:36;;;;;;;1.80;1.20;;;;;;;-141.84;85.07;19624.84;4966572;28;20258;-63
2023/11/10 01:47:06;;;;;;;1.97;1.60;;;;;;;-141.84;86.89;19854.50;4966942;28;20236;-62
2023/11/10 01:49:35;;;;;;;1.53;1.33;;;;;;;-141.84;85.48;19724.41;4981500;28;20225;-62
2023/11/10 01:52:05;;;;;;;2.23;1.57;;;;;;;-141.84;86.29;19795.53;4978722;28;20673;-62
2023/11/10 01:54:36;;;;;;;2.53;1.50;;;;;;;-141.84;86.80;19842.28;4986468;28;20310;-62
2023/11/10 01:57:06;;;;;;;2.23;1.67;;;;;;;-141.84;88.70;20171.56;4984965;28;20224;-62
2023/11/10 01:59:35;;;;;;;1.80;1.60;;;;;;;-141.84;89.48;20431.72;4983669;28;20224;-62
2023/11/10 02:02:04;;;;;;;2.17;1.60;;;;;;;-141.84;89.41;20435.78;4958673;28;20243;-62
2023/11/10 02:04:33;;;;;;;1.87;1.67;;;;;;;-141.84;89.84;20545.56;4992825;28;20209;-63
2023/11/10 02:07:02;;;;;;;2.03;1.60;;;;;;;-141.84;88.69;20224.41;5005343;28;20234;-61
2023/11/10 02:09:31;;;;;;;2.37;1.57;;;;;;;-141.84;89.40;20425.63;4988674;28;20258;-63
2023/11/10 02:12:01;;;;;;;2.30;1.60;;;;;;;-141.84;89.70;20637.03;4981734;28;20255;-62
2023/11/10 02:14:29;;;;;;;1.57;1.47;;;;;;;-141.84;87.97;20069.94;4985619;28;20730;-62
2023/11/10 02:16:58;;;;;;;1.60;1.47;;;;;;;-141.84;89.84;20486.59;5000708;28;20237;-62
2023/11/10 02:19:26;;;;;;;2.00;1.33;;;;;;;-141.84;90.28;20809.81;5005197;28;20633;-62
2023/11/10 02:21:55;;;;;;;3.10;1.40;;;;;;;-141.84;91.03;21212.34;4998767;28;20282;-62
2023/11/10 02:24:27;;;;;;;1.40;1.30;;;;;;;-141.84;91.98;21972.81;4981136;28;20321;-62
2023/11/10 02:26:57;;;;;;;1.73;1.60;;;;;;;-141.84;89.88;20783.41;4972007;28;20238;-61
2023/11/10 02:29:26;;;;;;;2.27;1.33;;;;;;;-141.84;89.97;20787.47;4965852;28;20231;-62
2023/11/10 02:31:55;;;;;;;1.67;1.30;;;;;;;-141.84;87.75;20043.50;4965790;28;20587;-61
2023/11/10 02:34:24;;;;;;;2.70;1.50;;;;;;;-141.84;88.58;20208.13;4967268;28;20211;-61
2023/11/10 02:36:52;;;;;;;4.00;1.30;;;;;;;-141.84;87.95;20061.78;4985274;28;20675;-62
2023/11/10 02:39:21;;;;;;;1.30;1.20;;;;;;;-141.84;88.23;20049.59;4985644;28;20235;-62
2023/11/10 02:41:52;;;;;;;2.17;1.10;;;;;;;-141.84;89.13;20311.78;4985495;28;20346;-62
2023/11/10 02:44:22;;;;;;;4.30;1.20;;;;;;;-141.84;89.31;20433.75;4977479;28;20243;-62
2023/11/10 02:46:51;;;;;;;1.20;1.10;;;;;;;-141.84;89.32;20382.94;4988355;28;20230;-62
2023/11/10 02:49:20;;;;;;;1.80;1.10;;;;;;;-141.84;87.40;20043.50;4990231;28;20203;-62
2023/11/10 02:51:49;;;;;;;1.23;1.00;;;;;;;-141.84;88.65;20141.06;4993476;28;20280;-62
2023/11/10 02:54:18;;;;;;;1.80;1.10;;;;;;;-141.84;88.49;20277.25;4997837;28;20867;-62
2023/11/10 02:56:47;;;;;;;1.27;1.10;;;;;;;-141.84;88.22;20132.94;4992270;28;20286;-63
2023/11/10 02:59:16;;;;;;;2.23;1.00;;;;;;;-141.84;87.50;20013.00;4984057;28;20987;-62
2023/11/10 03:01:46;;;;;;;1.43;1.10;;;;;;;-141.84;89.44;20376.84;4965407;28;20204;-62
2023/11/10 03:04:15;;;;;;;1.50;1.23;;;;;;;-141.84;89.41;20496.78;4962165;28;20298;-62
2023/11/10 03:06:43;;;;;;;1.33;1.23;;;;;;;-141.84;89.59;20519.13;4984794;28;20677;-61
2023/11/10 03:09:13;;;;;;;1.03;1.00;;;;;;;-141.84;90.75;21305.88;4998590;28;20749;-63
2023/11/10 03:11:42;;;;;;;1.10;1.00;;;;;;;-141.84;88.65;20236.59;5004712;28;20241;-63
2023/11/10 03:14:10;;;;;;;1.17;1.00;;;;;;;-141.84;89.98;20679.72;4964549;28;20310;-62
2023/11/10 03:16:40;;;;;;;3.00;1.00;;;;;;;-141.84;90.35;21021.25;4965748;28;20211;-63
2023/11/10 03:19:10;;;;;;;1.87;1.20;;;;;;;-141.84;89.18;20452.06;4965102;28;20282;-63
2023/11/10 03:21:39;;;;;;;1.63;1.40;;;;;;;-141.84;89.59;20561.81;4964941;28;20228;-62
2023/11/10 03:24:43;;;;;;;2.37;1.20;;;;;;;-141.84;87.90;20128.88;4957880;28;20265;-62
2023/11/10 03:27:12;;;;;;;1.10;1.00;;;;;;;-141.84;88.55;20267.09;4965252;28;20228;-63
2023/11/10 03:29:41;;;;;;;0.90;0.90;;;;;;;-141.84;89.40;20551.66;4965278;28;20239;-62
2023/11/10 03:32:09;;;;;;;1.10;1.00;;;;;;;-141.84;86.96;19952.03;4957734;28;21030;-63
2023/11/10 03:34:41;;;;;;;0.90;0.80;;;;;;;-141.84;85.55;19750.84;4972640;28;20310;-62
2023/11/10 03:37:10;;;;;;;0.87;0.87;;;;;;;-141.84;84.29;19647.19;4984796;28;20235;-63
2023/11/10 03:39:40;;;;;;;1.60;0.90;;;;;;;-141.84;83.66;19594.34;4984387;28;20342;-62
2023/11/10 03:42:09;;;;;;;1.13;1.00;;;;;;;-141.84;84.17;19584.19;4977572;28;20227;-62
2023/11/10 03:44:37;;;;;;;0.97;0.87;;;;;;;-141.84;86.56;19795.53;4972280;28;20777;-62
2023/11/10 03:47:06;;;;;;;2.03;0.80;;;;;;;-141.84;88.09;20029.28;4965299;28;20319;-63
2023/11/10 03:49:35;;;;;;;1.10;0.90;;;;;;;-141.84;88.45;20114.63;4965104;28;20271;-62
2023/11/10 03:52:06;;;;;;;1.27;1.17;;;;;;;-141.84;86.20;19789.44;4957469;28;20794;-63
2023/11/10 03:54:34;;;;;;;1.73;1.10;;;;;;;-141.84;87.56;19986.59;4964848;28;20240;-61
2023/11/10 03:57:03;;;;;;;2.07;1.10;;;;;;;-141.84;88.01;20037.41;4964629;28;20267;-62
2023/11/10 03:59:31;;;;;;;2.67;1.13;;;;;;;-141.84;88.70;20293.50;4964384;28;20302;-62
2023/11/10 04:02:00;;;;;;;1.20;1.10;;;;;;;-141.84;86.82;19911.41;4973814;28;20215;-62
2023/11/10 04:04:28;;;;;;;2.80;1.20;;;;;;;-141.84;88.07;20092.28;4984132;28;20579;-62
2023/11/10 04:06:57;;;;;;;1.30;1.20;;;;;;;-141.84;87.81;20126.84;4983778;28;20258;-62
2023/11/10 04:09:27;;;;;;;1.70;1.33;;;;;;;-141.84;87.72;20047.56;4983298;28;20317;-62
2023/11/10 04:11:55;;;;;;;1.87;1.20;;;;;;;-141.84;86.13;19799.63;4983781;28;20242;-62
2023/11/10 04:14:24;;;;;;;1.70;1.20;;;;;;;-141.84;87.91;20021.16;4979324;28;20265;-62
2023/11/10 04:16:52;;;;;;;1.30;1.00;;;;;;;-141.84;89.65;20588.25;4983767;28;20294;-62
2023/11/10 04:19:22;;;;;;;1.40;1.00;;;;;;;-141.84;88.45;20362.63;4984105;28;20204;-61
2023/11/10 04:21:50;;;;;;;2.50;1.10;;;;;;;-141.84;87.04;19945.94;4983010;28;20258;-63
2023/11/10 04:24:21;;;;;;;1.20;1.10;;;;;;;-141.84;87.08;19970.34;4976186;28;20234;-62
2023/11/10 04:26:51;;;;;;;1.50;0.90;;;;;;;-141.84;87.65;20017.09;4970602;28;20255;-62
2023/11/10 04:29:20;;;;;;;1.20;1.00;;;;;;;-141.84;87.83;20143.09;4963722;28;20598;-63
2023/11/10 04:31:48;;;;;;;1.17;1.07;;;;;;;-141.84;87.45;19996.75;4964172;28;20220;-62
2023/11/10 04:34:17;;;;;;;1.30;1.20;;;;;;;-141.84;88.08;20175.63;4961213;28;20207;-62
2023/11/10 04:36:46;;;;;;;1.13;1.03;;;;;;;-141.84;88.26;20220.34;4983380;28;20243;-62
2023/11/10 04:39:16;;;;;;;1.23;1.00;;;;;;;-141.84;88.65;20305.69;4983283;28;20223;-62
2023/11/10 04:41:46;;;;;;;1.57;0.90;;;;;;;-141.84;88.88;20352.44;4983539;28;20242;-62
2023/11/10 04:44:16;;;;;;;1.60;0.80;;;;;;;-141.84;90.22;20911.47;4975519;28;20752;-62
2023/11/10 04:46:48;;;;;;;2.40;1.20;;;;;;;-141.84;90.96;21395.34;4983565;28;20230;-63
2023/11/10 04:49:19;;;;;;;1.37;1.20;;;;;;;-141.84;91.82;22145.66;4984152;28;20310;-62
2023/11/10 04:51:48;;;;;;;1.53;1.30;;;;;;;-141.84;88.85;20513.03;4983636;28;20227;-61
2023/11/10 04:54:17;;;;;;;1.80;1.20;;;;;;;-141.84;88.54;20240.66;4975554;28;20230;-62
2023/11/10 04:56:45;;;;;;;1.27;1.00;;;;;;;-141.84;90.74;21187.97;4983352;28;20658;-62
2023/11/10 04:59:15;;;;;;;1.20;1.10;;;;;;;-141.84;92.10;22576.78;4983175;28;20223;-62
2023/11/10 05:01:44;;;;;;;2.13;1.30;;;;;;;-141.84;92.33;23073.06;4983531;28;20243;-63
2023/11/10 05:04:12;;;;;;;1.13;1.03;;;;;;;-141.84;92.07;22458.84;4976464;28;20296;-61
2023/11/10 05:06:41;;;;;;;1.20;1.00;;;;;;;-141.84;93.12;23748.44;4982744;28;20293;-63
2023/11/10 05:09:10;;;;;;;1.83;1.10;;;;;;;-141.84;94.35;26766.63;4983567;28;20228;-61
2023/11/10 05:11:38;;;;;;;1.53;1.17;;;;;;;-141.84;95.10;29302.25;4982608;28;20314;-62
2023/11/10 05:14:08;;;;;;;1.20;1.10;;;;;;;-141.84;95.99;33142.44;4975345;28;20243;-63
2023/11/10 05:16:38;;;;;;;1.03;0.93;;;;;;;-141.84;96.25;34553.88;4983658;28;20246;-62
2023/11/10 05:19:07;;;;;;;1.30;1.17;;;;;;;-141.84;96.14;34755.84;4983305;28;20258;-63
2023/11/10 05:21:35;;;;;;;1.23;1.03;;;;;;;-141.84;96.07;34052.06;4982697;28;20231;-62
2023/11/10 05:24:05;;;;;;;1.47;1.23;;;;;;;-141.84;96.81;38346.09;4975079;28;20243;-62
2023/11/10 05:26:34;;;;;;;1.30;1.20;;;;;;;-141.84;97.60;42738.88;4971441;28;20264;-64
2023/11/10 05:29:03;;;;;;;1.60;1.30;;;;;;;-141.84;98.18;46013.16;4963115;28;20658;-62
2023/11/10 05:31:31;;;;;;;1.30;1.20;;;;;;;-141.84;98.85;50467.75;4963754;28;20214;-61
2023/11/10 05:34:03;;;;;;;1.70;1.43;;;;;;;-141.84;99.50;53615.19;4963025;28;20262;-62
2023/11/10 05:36:32;;;;;;;1.60;1.50;;;;;;;-141.84;99.66;55977.41;4966192;28;20318;-62
2023/11/10 05:39:00;;;;;;;3.50;1.30;;;;;;;-141.84;98.62;49419.16;4966779;28;20783;-62
2023/11/10 05:41:32;;;;;;;2.53;1.20;;;;;;;-141.84;99.07;52041.16;4966642;28;20228;-62
2023/11/10 05:44:01;;;;;;;2.23;1.10;;;;;;;-141.84;99.14;52828.09;4974378;28;20203;-62
2023/11/10 05:46:29;;;;;;;2.23;1.40;;;;;;;-141.84;98.91;52303.44;4986344;28;20266;-62
2023/11/10 05:48:58;;;;;;;1.80;1.20;;;;;;;-141.84;97.08;40492.84;4986211;28;20262;-62
2023/11/10 05:51:28;;;;;;;1.47;1.10;;;;;;;-141.84;96.13;36184.22;4985729;28;20254;-62
2023/11/10 05:53:56;;;;;;;1.33;1.23;;;;;;;-141.84;96.07;34333.56;4975186;28;20730;-62
2023/11/10 05:56:25;;;;;;;1.73;1.23;;;;;;;-141.84;95.24;30987.47;4964035;28;20739;-62
2023/11/10 05:58:53;;;;;;;1.33;1.20;;;;;;;-141.84;94.47;28980.38;4975259;28;20691;-62
2023/11/10 06:01:25;;;;;;;1.70;1.60;;;;;;;-141.84;92.43;23353.78;4970875;28;20239;-63
2023/11/10 06:03:54;;;;;;;2.17;1.30;;;;;;;-141.84;92.66;23752.50;4966718;28;20298;-62
2023/11/10 06:06:24;;;;;;;1.53;1.20;;;;;;;-141.84;93.21;25223.66;4997369;28;20239;-61
2023/11/10 06:08:55;;;;;;;1.67;1.40;;;;;;;-141.84;91.89;22615.44;5005056;28;20382;-63
2023/11/10 06:11:24;;;;;;;1.40;1.30;;;;;;;-141.84;91.04;21564.09;5005208;28;20231;-62
2023/11/10 06:13:55;;;;;;;1.77;1.50;;;;;;;-141.84;90.80;21438.03;4977820;28;20250;-62
2023/11/10 06:16:24;;;;;;;1.43;1.30;;;;;;;-141.84;90.05;20984.66;4964968;28;20635;-61
2023/11/10 06:18:52;;;;;;;1.60;1.27;;;;;;;-141.84;90.01;20854.53;5005066;28;20243;-62
2023/11/10 06:21:23;;;;;;;1.80;1.70;;;;;;;-141.84;91.28;21684.06;5004420;28;20588;-61
2023/11/10 06:23:53;;;;;;;1.97;1.50;;;;;;;-141.84;90.58;21143.22;5005316;28;20227;-62
2023/11/10 06:26:22;;;;;;;1.67;1.30;;;;;;;-141.84;90.32;21112.72;4978715;28;20359;-62
2023/11/10 06:28:50;;;;;;;1.77;1.67;;;;;;;-141.84;89.06;20559.78;4965805;28;20730;-63
2023/11/10 06:31:20;;;;;;;2.83;1.63;;;;;;;-141.84;88.63;20372.78;4976100;28;20236;-61
2023/11/10 06:33:48;;;;;;;2.87;1.10;;;;;;;-141.84;87.10;20025.22;4985799;28;20346;-62
2023/11/10 06:36:17;;;;;;;1.40;1.30;;;;;;;-141.84;87.42;20021.16;4978715;28;20293;-63
2023/11/10 06:38:46;;;;;;;2.77;1.90;;;;;;;-141.84;86.55;19909.34;4997265;28;20227;-62
2023/11/10 06:41:16;;;;;;;1.37;1.10;;;;;;;-141.84;86.14;19811.81;4985534;28;20231;-62
2023/11/10 06:43:46;;;;;;;2.07;1.30;;;;;;;-141.84;87.76;20061.78;4993541;28;20285;-63
2023/11/10 06:46:22;;;;;;;1.43;1.30;;;;;;;-141.84;90.66;21299.78;4997147;28;20317;-62
2023/11/10 06:48:51;;;;;;;1.13;1.03;;;;;;;-141.84;90.58;21190.00;4990917;28;20262;-63
2023/11/10 06:51:20;;;;;;;2.17;1.10;;;;;;;-141.84;94.09;26092.78;4978074;28;20266;-63
2023/11/10 06:53:49;;;;;;;1.67;1.43;;;;;;;-141.84;96.28;35996.44;4982074;28;20235;-61
2023/11/10 06:56:19;;;;;;;2.23;1.70;;;;;;;-141.84;97.75;45227.56;4968129;28;20754;-63
2023/11/10 06:58:48;;;;;;;1.63;1.10;;;;;;;-141.84;99.00;52828.09;5004850;28;20623;-63
2023/11/10 07:01:16;;;;;;;1.57;1.20;;;;;;;-141.84;100.00;58603.75;4988333;28;20207;-63
2023/11/10 07:03:46;;;;;;;1.50;1.10;;;;;;;-141.84;100.00;63861.66;4985336;28;20235;-62
2023/11/10 07:06:17;;;;;;;1.33;1.23;;;;;;;-141.84;100.00;67283.00;4978657;28;20230;-62
2023/11/10 07:08:45;;;;;;;1.37;1.27;;;;;;;-141.84;100.00;68336.31;4986461;28;20322;-63
2023/11/10 07:11:15;;;;;;;3.67;1.40;;;;;;;-141.84;98.32;51778.88;5004587;28;20322;-62
2023/11/10 07:13:45;;;;;;;2.87;1.47;;;;;;;-141.84;99.05;54140.00;4979707;28;20298;-64
2023/11/10 07:16:14;;;;;;;1.50;1.30;;;;;;;-141.84;98.43;51516.59;4958791;28;20208;-63
2023/11/10 07:18:43;;;;;;;2.30;1.20;;;;;;;-141.84;98.38;50992.13;4965654;28;20232;-63
2023/11/10 07:21:13;;;;;;;1.30;0.97;;;;;;;-141.84;96.89;43845.00;4965333;28;20270;-63
2023/11/10 07:23:42;;;;;;;1.50;1.40;;;;;;;-141.84;97.48;46275.03;4965303;28;20715;-62
2023/11/10 07:26:10;;;;;;;2.37;1.30;;;;;;;-141.84;95.76;36884.28;4957747;28;20352;-65
2023/11/10 07:28:39;;;;;;;3.17;1.90;;;;;;;-141.84;91.31;22747.63;4981908;28;20215;-63
2023/11/10 07:31:09;;;;;;;2.23;1.20;;;;;;;-141.84;91.65;22578.81;4983681;28;20378;-64
2023/11/10 07:33:37;;;;;;;1.83;1.30;;;;;;;-141.84;89.05;20586.22;4984223;28;20223;-63
2023/11/10 07:36:07;;;;;;;1.60;1.10;;;;;;;-141.84;87.69;20118.69;4976877;28;20231;-63
2023/11/10 07:38:35;;;;;;;2.40;1.30;;;;;;;-141.84;89.63;20773.22;4990353;28;20325;-63
2023/11/10 07:41:05;;;;;;;1.70;1.10;;;;;;;-141.84;87.67;20183.75;4998335;28;20637;-64
2023/11/10 07:43:33;;;;;;;0.97;0.80;;;;;;;-141.84;88.06;20232.53;4983862;28;20243;-63
2023/11/10 07:46:04;;;;;;;1.17;0.90;;;;;;;-141.84;88.15;20356.50;4968576;28;20267;-63
2023/11/10 07:48:37;;;;;;;1.40;1.10;;;;;;;-141.84;84.81;19726.44;4964070;28;20236;-64
2023/11/10 07:51:06;;;;;;;1.07;0.97;;;;;;;-141.84;84.30;19700.03;4964831;28;20239;-64
2023/11/10 07:53:35;;;;;;;3.13;1.00;;;;;;;-141.84;83.04;19604.50;4964709;28;20354;-64
2023/11/10 07:56:04;;;;;;;2.23;0.97;;;;;;;-141.84;81.53;19557.78;4956081;28;20235;-64
2023/11/10 07:58:33;;;;;;;0.80;0.80;;;;;;;-141.84;78.49;19478.50;4964803;28;20295;-65
2023/11/10 08:01:01;;;;;;;1.40;0.90;;;;;;;-141.84;79.75;19462.25;4979187;28;20322;-64
2023/11/10 08:03:30;;;;;;;1.53;0.97;;;;;;;-141.84;78.50;19423.66;4983842;28;20265;-65
2023/11/10 08:06:00;;;;;;;0.87;0.80;;;;;;;-141.84;77.25;19407.38;4981615;28;20253;-64
2023/11/10 08:08:28;;;;;;;1.77;0.97;;;;;;;-141.84;77.17;19415.50;4983720;28;20785;-65
2023/11/10 08:10:57;;;;;;;1.27;1.07;;;;;;;-141.84;78.99;19431.78;4983515;28;20227;-63
2023/11/10 08:13:25;;;;;;;1.70;1.30;;;;;;;-141.84;78.92;19468.34;4983176;28;20242;-63
2023/11/10 08:15:54;;;;;;;2.17;1.23;;;;;;;-141.84;78.21;19437.88;4983491;28;20262;-64
2023/11/10 08:18:24;;;;;;;4.13;1.37;;;;;;;-141.84;78.88;19435.84;4977605;28;20608;-63
2023/11/10 08:20:52;;;;;;;1.20;0.90;;;;;;;-141.84;76.77;19348.47;4983580;28;20231;-64
2023/11/10 08:23:22;;;;;;;1.60;1.20;;;;;;;-141.84;76.81;19380.97;4983637;28;20259;-64
2023/11/10 08:25:50;;;;;;;1.10;1.00;;;;;;;-141.84;78.08;19405.34;4978202;28;20218;-63
2023/11/10 08:28:19;;;;;;;2.67;1.13;;;;;;;-141.84;78.51;19423.66;4955958;28;20714;-64
2023/11/10 08:30:50;;;;;;;4.13;1.10;;;;;;;-141.84;75.96;19387.06;4974315;28;20239;-64
2023/11/10 08:33:18;;;;;;;2.07;1.10;;;;;;;-141.84;77.83;19411.44;4979481;28;20403;-64
2023/11/10 08:35:47;;;;;;;1.37;1.10;;;;;;;-141.84;78.20;19413.47;4983497;28;20243;-63
2023/11/10 08:38:16;;;;;;;1.07;0.97;;;;;;;-141.84;79.47;19468.34;4977282;28;20667;-64
2023/11/10 08:40:46;;;;;;;2.03;1.00;;;;;;;-141.84;80.94;19456.16;4995155;28;20198;-66
2023/11/10 08:43:15;;;;;;;1.50;1.00;;;;;;;-141.84;78.68;19441.94;4987811;28;20202;-65
2023/11/10 08:45:44;;;;;;;2.00;0.90;;;;;;;-141.84;79.29;19466.31;4986120;28;20266;-65
2023/11/10 08:48:12;;;;;;;2.20;1.00;;;;;;;-141.84;80.50;19496.81;4975342;28;20274;-63
2023/11/10 08:50:41;;;;;;;2.07;1.10;;;;;;;-141.84;81.77;19513.06;4986261;28;20230;-62
2023/11/10 08:53:09;;;;;;;1.47;1.10;;;;;;;-141.84;79.65;19496.81;4990135;28;20250;-63
2023/11/10 08:55:38;;;;;;;1.80;1.00;;;;;;;-141.84;81.11;19525.25;4985408;28;20211;-63
2023/11/10 08:58:08;;;;;;;1.60;0.97;;;;;;;-141.84;81.84;19533.38;4991970;28;20268;-62
2023/11/10 09:00:37;;;;;;;2.37;1.10;;;;;;;-141.84;82.67;19565.91;4970642;28;20330;-63
2023/11/10 09:03:05;;;;;;;1.47;0.80;;;;;;;-141.84;82.23;19580.13;4978445;28;20653;-62
2023/11/10 09:05:34;;;;;;;1.00;0.90;;;;;;;-141.84;83.08;19628.91;4982230;28;20245;-62
2023/11/10 09:08:03;;;;;;;2.13;1.00;;;;;;;-141.84;83.18;19626.88;4976742;28;20266;-60
2023/11/10 09:10:31;;;;;;;1.27;0.80;;;;;;;-141.84;82.89;19659.38;4973955;28;20762;-60
2023/11/10 09:13:00;;;;;;;2.13;1.00;;;;;;;-141.84;79.17;19470.38;4986331;28;20282;-60
2023/11/10 09:15:30;;;;;;;1.37;1.10;;;;;;;-141.84;77.18;19494.78;4973172;28;20243;-60
2023/11/10 09:17:58;;;;;;;1.20;1.00;;;;;;;-141.84;78.10;19474.44;4964709;28;20649;-65
2023/11/10 09:20:27;;;;;;;1.30;0.93;;;;;;;-141.84;77.32;19421.63;4981922;28;20714;-63
2023/11/10 09:22:55;;;;;;;2.07;1.07;;;;;;;-141.84;76.65;19419.59;4966867;28;20274;-63
2023/11/10 09:25:24;;;;;;;2.27;1.10;;;;;;;-141.84;78.50;19415.50;4967344;28;20216;-64
2023/11/10 09:27:56;;;;;;;1.70;1.10;;;;;;;-141.84;78.33;19466.31;4967936;28;20322;-63
2023/11/10 09:30:26;;;;;;;3.00;1.00;;;;;;;-141.84;78.03;19413.47;4968068;28;20230;-62
2023/11/10 09:32:57;;;;;;;1.53;0.80;;;;;;;-141.84;79.63;19478.50;4977481;28;20244;-63
2023/11/10 09:35:26;;;;;;;1.50;1.13;;;;;;;-141.84;79.39;19454.13;4966106;28;20310;-63
2023/11/10 09:37:56;;;;;;;3.80;0.90;;;;;;;-141.84;80.21;19527.28;4967788;28;20214;-63
2023/11/10 09:40:25;;;;;;;2.43;1.20;;;;;;;-141.84;80.54;19527.28;4965543;28;20563;-62
2023/11/10 09:42:56;;;;;;;2.00;0.80;;;;;;;-141.84;80.67;19500.88;4972513;28;20235;-64
2023/11/10 09:45:27;;;;;;;2.40;0.80;;;;;;;-141.84;81.30;19521.19;4969608;28;20578;-63
2023/11/10 09:47:58;;;;;;;2.93;0.70;;;;;;;-141.84;82.30;19580.13;4966561;28;20344;-68
2023/11/10 09:50:28;;;;;;;2.13;0.90;;;;;;;-141.84;80.83;19476.47;4963650;28;20318;-66
2023/11/10 09:52:58;;;;;;;1.20;0.90;;;;;;;-141.84;80.46;19498.84;4971192;28;20262;-65
2023/11/10 09:55:28;;;;;;;2.17;0.90;;;;;;;-141.84;80.94;19504.94;4984188;28;20199;-65
2023/11/10 09:57:56;;;;;;;1.00;0.73;;;;;;;-141.84;82.00;19525.25;4985771;28;20261;-62
2023/11/10 10:00:26;;;;;;;1.20;0.70;;;;;;;-141.84;82.39;19567.94;4982653;28;20242;-63
2023/11/10 10:02:56;;;;;;;0.70;0.67;;;;;;;-141.84;84.76;19693.94;4977683;28;20228;-62
2023/11/10 10:05:24;;;;;;;1.10;0.73;;;;;;;-141.84;85.52;19793.50;4965810;28;20647;-68
2023/11/10 10:07:53;;;;;;;0.70;0.70;;;;;;;-141.84;85.48;19834.16;4966224;28;20208;-63
2023/11/10 10:10:22;;;;;;;0.90;0.80;;;;;;;-141.84;83.99;19691.91;4961635;28;20232;-63
2023/11/10 10:12:52;;;;;;;0.90;0.70;;;;;;;-141.84;85.00;19716.28;4974056;28;20293;-62
2023/11/10 10:15:29;;;;;;;0.70;0.70;;;;;;;-141.84;84.12;19710.19;4984584;28;20285;-64
2023/11/10 10:18:08;;;;;;;0.80;0.70;;;;;;;-141.84;81.92;19553.72;4983396;28;20227;-65
2023/11/10 10:20:39;;;;;;;0.70;0.70;;;;;;;-141.84;83.64;19661.41;4985046;28;20602;-64
2023/11/10 10:23:09;;;;;;;0.80;0.70;;;;;;;-141.84;83.94;19704.09;4985139;28;20301;-65
2023/11/10 10:25:39;;;;;;;1.17;0.63;;;;;;;-141.84;82.09;19614.66;4981965;28;20299;-66
2023/11/10 10:28:08;;;;;;;2.73;0.87;;;;;;;-141.84;81.23;19506.97;4959061;28;20231;-66
2023/11/10 10:30:37;;;;;;;1.17;0.60;;;;;;;-141.84;83.01;19616.72;4965551;28;20239;-62
2023/11/10 10:33:08;;;;;;;1.80;1.03;;;;;;;-141.84;82.44;19602.47;4965349;28;20239;-65
2023/11/10 10:35:37;;;;;;;0.67;0.60;;;;;;;-141.84;82.99;19582.16;4966198;28;20232;-63
2023/11/10 10:38:06;;;;;;;0.70;0.60;;;;;;;-141.84;80.68;19496.81;4957765;28;20228;-64
2023/11/10 10:40:35;;;;;;;1.27;0.80;;;;;;;-141.84;81.62;19576.06;4967169;28;20220;-63
2023/11/10 10:43:07;;;;;;;1.17;0.60;;;;;;;-141.84;81.33;19535.41;4972617;28;20271;-63
2023/11/10 10:45:37;;;;;;;1.53;0.67;;;;;;;-141.84;81.99;19582.16;4984286;28;20262;-63
2023/11/10 10:48:08;;;;;;;0.70;0.70;;;;;;;-141.84;79.33;19466.31;4977032;28;20231;-63
2023/11/10 10:50:39;;;;;;;2.30;0.70;;;;;;;-141.84;79.17;19454.13;4984624;28;20239;-65
2023/11/10 10:53:10;;;;;;;2.60;0.80;;;;;;;-141.84;79.80;19486.66;4982065;28;20235;-65
2023/11/10 10:55:40;;;;;;;2.63;0.70;;;;;;;-141.84;79.12;19476.47;4966830;28;20310;-65
2023/11/10 10:58:09;;;;;;;1.20;0.60;;;;;;;-141.84;77.74;19460.22;4960647;28;20228;-65
2023/11/10 11:00:38;;;;;;;2.70;0.80;;;;;;;-141.84;77.95;19429.75;4978204;28;20314;-64
2023/11/10 11:03:32;;;;;;;1.10;0.50;;;;;;;-141.84;75.56;19415.50;4965805;28;20224;-66
2023/11/10 11:06:18;;;;;;;1.00;0.70;;;;;;;-141.84;75.21;19435.84;4968037;28;20306;-65
2023/11/10 11:09:06;;;;;;;2.40;0.90;;;;;;;-141.84;73.26;19399.25;4976383;28;20223;-65
2023/11/10 11:12:08;;;;;;;1.03;0.73;;;;;;;-141.84;72.73;19429.75;4984426;28;20231;-65
2023/11/10 11:14:48;;;;;;;0.80;0.80;;;;;;;-141.84;70.41;19452.09;4982968;28;20278;-64
2023/11/10 11:17:49;;;;;;;0.77;0.60;;;;;;;-141.84;69.58;19399.25;4964477;28;20223;-65
2023/11/10 11:20:20;;;;;;;0.50;0.50;;;;;;;-141.84;70.57;19409.41;4957415;28;20467;-65
2023/11/10 11:22:50;;;;;;;1.47;0.87;;;;;;;-141.84;72.27;19407.38;4964331;28;20239;-65
2023/11/10 11:25:20;;;;;;;0.77;0.70;;;;;;;-141.84;72.98;19413.47;4964509;28;20240;-65
2023/11/10 11:27:58;;;;;;;0.50;0.50;;;;;;;-141.84;72.08;19419.59;4971424;28;20231;-64